createdAt,value
2023-02-27T00:01:00.673Z,16.13
2023-02-27T00:03:28.432Z,13.85
2023-02-27T00:05:56.585Z,16.52
2023-02-27T00:08:24.489Z,16.58
2023-02-27T00:10:52.078Z,14.40
2023-02-27T00:13:19.765Z,17.20
2023-02-27T00:15:49.681Z,16.35
2023-02-27T00:18:17.199Z,14.98
2023-02-27T00:20:44.972Z,16.98
2023-02-27T00:23:12.456Z,16.40
2023-02-27T00:25:39.927Z,19.58
2023-02-27T00:28:07.836Z,16.35
2023-02-27T00:30:35.443Z,15.65
2023-02-27T00:33:02.852Z,18.75
2023-02-27T00:35:30.296Z,15.82
2023-02-27T00:37:57.661Z,15.85
2023-02-27T00:40:27.829Z,16.67
2023-02-27T00:42:55.290Z,14.75
2023-02-27T00:45:22.840Z,15.73
2023-02-27T00:47:50.334Z,16.10
2023-02-27T00:50:17.829Z,15.63
2023-02-27T00:52:45.347Z,18.23
2023-02-27T00:55:13.077Z,18.33
2023-02-27T00:57:41.072Z,14.82
2023-02-27T01:00:09.955Z,15.43
2023-02-27T01:02:37.759Z,17.30
2023-02-27T01:05:05.779Z,12.60
2023-02-27T01:07:33.181Z,17.80
2023-02-27T01:10:02.320Z,18.73
2023-02-27T01:12:30.776Z,15.07
2023-02-27T01:14:58.133Z,14.52
2023-02-27T01:17:25.642Z,19.02
2023-02-27T01:19:53.062Z,16.55
2023-02-27T01:22:20.495Z,15.65
2023-02-27T01:24:48.100Z,13.38
2023-02-27T01:27:15.616Z,15.73
2023-02-27T01:29:43.357Z,17.77
2023-02-27T01:32:11.000Z,16.63
2023-02-27T01:34:38.645Z,17.08
2023-02-27T01:37:06.108Z,20.02
2023-02-27T01:39:33.631Z,17.38
2023-02-27T01:42:01.362Z,13.35
2023-02-27T01:46:57.918Z,13.73
2023-02-27T01:49:32.793Z,17.33
2023-02-27T01:52:07.868Z,15.30
2023-02-27T01:54:39.759Z,14.98
2023-02-27T01:57:07.651Z,15.10
2023-02-27T01:59:37.292Z,17.55
2023-02-27T02:02:13.853Z,14.93
2023-02-27T02:04:42.606Z,18.58
2023-02-27T02:07:15.712Z,13.75
2023-02-27T02:09:51.012Z,13.40
2023-02-27T02:12:21.567Z,16.98
2023-02-27T02:14:49.054Z,16.08
2023-02-27T02:18:10.732Z,17.60
2023-02-27T02:20:56.359Z,15.40
2023-02-27T02:23:46.567Z,15.32
2023-02-27T02:26:46.219Z,14.45
2023-02-27T02:29:25.747Z,12.35
2023-02-27T02:32:21.496Z,13.85
2023-02-27T02:35:16.893Z,14.63
2023-02-27T02:38:06.235Z,13.80
2023-02-27T02:40:39.594Z,17.30
2023-02-27T02:43:16.497Z,14.52
2023-02-27T02:46:03.972Z,16.60
2023-02-27T02:49:06.270Z,16.20
2023-02-27T02:51:51.275Z,14.55
2023-02-27T02:54:28.687Z,15.15
2023-02-27T02:57:15.166Z,13.55
2023-02-27T03:00:06.657Z,13.95
2023-02-27T03:02:40.628Z,12.90
2023-02-27T03:05:13.981Z,13.82
2023-02-27T03:07:52.083Z,18.85
2023-02-27T03:10:59.165Z,14.77
2023-02-27T03:13:46.993Z,15.15
2023-02-27T03:18:50.378Z,18.27
2023-02-27T03:21:26.917Z,12.07
2023-02-27T03:23:59.375Z,14.43
2023-02-27T03:26:35.264Z,14.63
2023-02-27T03:29:09.098Z,13.60
2023-02-27T03:32:01.273Z,16.02
2023-02-27T03:34:33.795Z,15.20
2023-02-27T03:37:25.483Z,13.07
2023-02-27T03:40:20.724Z,14.50
2023-02-27T03:43:02.964Z,13.48
2023-02-27T03:45:42.764Z,15.02
2023-02-27T03:48:10.247Z,14.93
2023-02-27T03:50:38.372Z,13.40
2023-02-27T03:53:13.648Z,11.68
2023-02-27T03:55:45.407Z,16.48
2023-02-27T03:58:13.051Z,17.63
2023-02-27T04:00:40.619Z,16.23
2023-02-27T04:03:08.768Z,18.88
2023-02-27T04:05:36.352Z,15.20
2023-02-27T04:08:18.653Z,16.50
2023-02-27T04:11:12.779Z,20.73
2023-02-27T04:14:04.775Z,13.65
2023-02-27T04:16:47.316Z,11.43
2023-02-27T04:19:34.461Z,13.45
2023-02-27T04:22:35.777Z,18.58
2023-02-27T04:25:25.149Z,15.38
2023-02-27T04:27:58.462Z,15.75
2023-02-27T04:30:45.271Z,12.80
2023-02-27T04:33:18.620Z,16.35
2023-02-27T04:36:06.325Z,14.00
2023-02-27T04:38:46.890Z,18.73
2023-02-27T04:41:20.585Z,16.05
2023-02-27T04:43:50.588Z,12.98
2023-02-27T04:46:22.797Z,15.20
2023-02-27T04:49:10.801Z,14.65
2023-02-27T04:51:58.689Z,15.55
2023-02-27T04:54:35.085Z,15.52
2023-02-27T04:57:11.407Z,17.20
2023-02-27T04:59:53.454Z,20.30
2023-02-27T05:02:36.473Z,17.20
2023-02-27T05:05:11.782Z,15.32
2023-02-27T05:07:45.662Z,18.33
2023-02-27T05:10:26.071Z,19.27
2023-02-27T05:13:05.776Z,16.88
2023-02-27T05:15:43.301Z,15.88
2023-02-27T05:18:16.942Z,17.23
2023-02-27T05:21:10.949Z,17.92
2023-02-27T05:23:49.417Z,13.60
2023-02-27T05:26:27.490Z,16.35
2023-02-27T05:29:03.493Z,14.57
2023-02-27T05:31:43.539Z,14.38
2023-02-27T05:35:05.549Z,12.48
2023-02-27T05:38:00.437Z,15.38
2023-02-27T05:40:40.223Z,15.35
2023-02-27T05:43:19.372Z,15.43
2023-02-27T05:45:49.462Z,14.20
2023-02-27T05:48:28.060Z,16.70
2023-02-27T05:50:57.194Z,16.73
2023-02-27T05:53:35.507Z,12.93
2023-02-27T05:56:05.977Z,13.48
2023-02-27T05:58:49.485Z,15.05
2023-02-27T06:01:18.146Z,14.75
2023-02-27T06:03:47.014Z,16.00
2023-02-27T06:06:17.833Z,12.32
2023-02-27T06:08:51.228Z,16.38
2023-02-27T06:11:28.999Z,14.75
2023-02-27T06:14:12.684Z,14.75
2023-02-27T06:16:55.575Z,14.95
2023-02-27T06:19:28.160Z,14.82
2023-02-27T06:21:59.610Z,14.18
2023-02-27T06:24:29.253Z,13.18
2023-02-27T06:26:57.743Z,12.93
2023-02-27T06:29:25.458Z,12.38
2023-02-27T06:32:19.322Z,10.15
2023-02-27T06:37:15.476Z,16.05
2023-02-27T06:39:43.740Z,11.32
2023-02-27T06:42:21.579Z,10.80
2023-02-27T06:44:51.940Z,11.60
2023-02-27T06:48:03.640Z,11.10
2023-02-27T06:50:36.441Z,14.95
2023-02-27T06:53:27.494Z,14.65
2023-02-27T06:56:16.244Z,12.68
2023-02-27T06:58:52.408Z,14.75
2023-02-27T07:01:21.096Z,10.52
2023-02-27T07:03:49.502Z,10.70
2023-02-27T07:09:01.592Z,11.70
2023-02-27T07:11:35.376Z,13.07
2023-02-27T07:14:03.918Z,10.65
2023-02-27T07:16:31.743Z,9.90
2023-02-27T07:19:00.614Z,10.52
2023-02-27T07:21:31.717Z,10.63
2023-02-27T07:24:05.329Z,13.05
2023-02-27T07:26:33.308Z,11.65
2023-02-27T07:29:01.402Z,12.90
2023-02-27T07:31:34.297Z,15.30
2023-02-27T07:34:03.506Z,12.80
2023-02-27T07:36:31.978Z,14.05
2023-02-27T07:39:00.051Z,11.18
2023-02-27T07:41:31.005Z,11.65
2023-02-27T07:44:01.843Z,13.40
2023-02-27T07:46:30.749Z,15.68
2023-02-27T07:48:59.317Z,15.88
2023-02-27T07:51:41.068Z,14.70
2023-02-27T07:54:53.230Z,10.43
2023-02-27T08:00:46.054Z,13.65
2023-02-27T08:03:53.610Z,13.27
2023-02-27T08:06:42.923Z,11.10
2023-02-27T08:09:24.351Z,13.50
2023-02-27T08:11:53.997Z,12.00
2023-02-27T08:14:39.581Z,12.48
2023-02-27T08:17:09.811Z,14.27
2023-02-27T08:19:44.777Z,11.98
2023-02-27T08:22:47.851Z,12.93
2023-02-27T08:25:47.552Z,14.32
2023-02-27T08:28:16.926Z,12.80
2023-02-27T08:31:04.333Z,14.38
2023-02-27T08:37:36.760Z,16.58
2023-02-27T08:40:17.224Z,10.38
2023-02-27T08:43:10.709Z,14.57
2023-02-27T08:46:56.349Z,11.18
2023-02-27T08:49:29.838Z,13.38
2023-02-27T08:52:04.398Z,13.32
2023-02-27T08:54:54.400Z,14.85
2023-02-27T08:57:50.691Z,14.60
2023-02-27T09:00:23.211Z,14.75
2023-02-27T09:03:03.180Z,14.77
2023-02-27T09:05:31.005Z,16.92
2023-02-27T09:07:59.087Z,11.18
2023-02-27T09:10:27.726Z,19.00
2023-02-27T09:12:55.842Z,15.18
2023-02-27T09:15:28.008Z,17.02
2023-02-27T09:18:28.687Z,14.35
2023-02-27T09:21:05.384Z,13.18
2023-02-27T09:23:33.060Z,16.25
2023-02-27T09:26:00.924Z,16.42
2023-02-27T09:28:33.785Z,16.58
2023-02-27T09:31:07.119Z,13.98
2023-02-27T09:38:10.814Z,15.05
2023-02-27T09:41:10.136Z,14.38
2023-02-27T09:43:50.996Z,14.13
2023-02-27T09:46:30.582Z,15.35
2023-02-27T09:49:01.396Z,14.38
2023-02-27T09:51:30.244Z,14.57
2023-02-27T09:54:03.682Z,16.27
2023-02-27T09:56:47.681Z,14.63
2023-02-27T09:59:31.909Z,20.20
2023-02-27T10:02:06.525Z,13.27
2023-02-27T10:04:41.583Z,17.15
2023-02-27T10:07:25.517Z,16.25
2023-02-27T10:10:17.138Z,19.90
2023-02-27T10:13:19.402Z,13.20
2023-02-27T10:15:50.309Z,14.45
2023-02-27T10:18:33.693Z,14.95
2023-02-27T10:21:07.188Z,17.00
2023-02-27T10:23:47.188Z,16.48
2023-02-27T10:26:28.011Z,19.02
2023-02-27T10:28:56.226Z,14.50
2023-02-27T10:31:37.035Z,15.45
2023-02-27T10:34:09.529Z,16.85
2023-02-27T10:36:37.572Z,18.92
2023-02-27T10:39:08.296Z,17.67
2023-02-27T10:41:40.876Z,17.10
2023-02-27T10:44:11.131Z,13.43
2023-02-27T10:46:40.720Z,14.45
2023-02-27T10:49:19.846Z,17.13
2023-02-27T10:52:05.105Z,15.30
2023-02-27T10:54:33.524Z,14.65
2023-02-27T10:57:07.142Z,16.92
2023-02-27T10:59:41.090Z,18.45
2023-02-27T11:02:42.496Z,14.18
2023-02-27T11:05:25.693Z,16.27
2023-02-27T11:07:53.626Z,17.15
2023-02-27T11:10:26.239Z,18.10
2023-02-27T11:13:00.923Z,15.70
2023-02-27T11:15:32.983Z,13.65
2023-02-27T11:18:26.044Z,15.27
2023-02-27T11:20:55.047Z,18.00
2023-02-27T11:23:26.191Z,16.52
2023-02-27T11:26:11.270Z,15.00
2023-02-27T11:28:38.883Z,16.13
2023-02-27T11:33:51.206Z,17.02
2023-02-27T11:36:18.819Z,18.10
2023-02-27T11:38:57.066Z,16.33
2023-02-27T11:41:33.380Z,18.10
2023-02-27T11:44:03.602Z,14.93
2023-02-27T11:46:48.286Z,18.40
2023-02-27T11:49:26.121Z,14.85
2023-02-27T11:52:24.461Z,17.27
2023-02-27T11:55:04.528Z,14.25
2023-02-27T11:57:42.891Z,16.52
2023-02-27T12:00:37.609Z,12.65
2023-02-27T12:03:44.884Z,16.98
2023-02-27T12:06:27.178Z,15.18
2023-02-27T12:09:20.322Z,15.35
2023-02-27T12:12:42.589Z,13.88
2023-02-27T12:15:13.931Z,16.10
2023-02-27T12:17:48.667Z,17.85
2023-02-27T12:20:20.144Z,15.88
2023-02-27T12:22:49.599Z,15.15
2023-02-27T12:25:35.634Z,14.45
2023-02-27T12:28:18.876Z,16.55
2023-02-27T12:31:05.746Z,15.73
2023-02-27T12:34:03.389Z,14.20
2023-02-27T12:36:32.003Z,13.90
2023-02-27T12:39:02.089Z,19.48
2023-02-27T12:41:55.043Z,15.30
2023-02-27T12:44:53.253Z,16.17
2023-02-27T12:47:39.941Z,19.77
2023-02-27T12:50:19.914Z,19.15
2023-02-27T12:52:47.357Z,16.90
2023-02-27T12:56:07.443Z,17.27
2023-02-27T12:58:59.819Z,14.32
2023-02-27T13:01:48.612Z,15.50
2023-02-27T13:04:41.740Z,19.15
2023-02-27T13:07:18.644Z,20.58
2023-02-27T13:09:56.907Z,12.55
2023-02-27T13:12:41.603Z,14.10
2023-02-27T13:15:23.019Z,16.52
2023-02-27T13:17:54.540Z,18.60
2023-02-27T13:20:21.822Z,18.05
2023-02-27T13:23:14.429Z,21.08
2023-02-27T13:25:47.558Z,18.08
2023-02-27T13:28:24.928Z,15.70
2023-02-27T13:31:10.425Z,15.63
2023-02-27T13:33:53.410Z,17.08
2023-02-27T13:36:24.454Z,14.40
2023-02-27T13:38:54.474Z,15.95
2023-02-27T13:41:21.783Z,16.23
2023-02-27T13:43:57.773Z,16.20
2023-02-27T13:46:34.743Z,15.98
2023-02-27T13:49:05.476Z,16.08
2023-02-27T13:57:58.223Z,19.23
2023-02-27T14:00:55.380Z,15.43
2023-02-27T14:03:26.689Z,20.98
2023-02-27T14:05:58.738Z,16.20
2023-02-27T14:08:31.614Z,16.00
2023-02-27T14:11:25.817Z,18.45
2023-02-27T14:13:55.214Z,22.40
2023-02-27T14:16:52.972Z,15.35
2023-02-27T14:19:22.691Z,19.40
2023-02-27T14:22:12.275Z,20.05
2023-02-27T14:25:00.987Z,17.10
2023-02-27T14:27:47.050Z,20.40
2023-02-27T14:46:41.904Z,17.13
2023-02-27T14:50:29.198Z,17.08
2023-02-27T15:03:00.630Z,13.30
2023-02-27T15:16:02.232Z,17.95
2023-02-27T15:20:27.732Z,15.35
2023-02-27T15:27:28.770Z,15.82
2023-02-27T15:35:20.334Z,18.67
2023-02-27T15:47:42.326Z,12.43
2023-02-27T15:51:31.337Z,15.10
2023-02-27T15:54:00.000Z,15.10
2023-02-27T16:05:55.279Z,13.73
2023-02-27T16:18:08.800Z,14.82
2023-02-27T16:21:11.858Z,18.65
2023-02-27T16:24:20.422Z,17.75
2023-02-27T16:28:03.472Z,14.20
2023-02-27T16:30:30.999Z,17.27
2023-02-27T16:37:41.711Z,17.73
2023-02-27T16:40:31.417Z,21.27
2023-02-27T16:42:59.350Z,18.13
2023-02-27T16:45:28.966Z,16.45
2023-02-27T16:47:58.794Z,20.73
2023-02-27T16:50:32.756Z,13.82
2023-02-27T16:53:03.616Z,17.50
2023-02-27T16:55:33.509Z,22.40
2023-02-27T16:58:01.151Z,20.38
2023-02-27T17:00:28.910Z,18.67
2023-02-27T17:02:56.298Z,19.67
2023-02-27T17:05:24.766Z,20.35
2023-02-27T17:07:52.690Z,14.88
2023-02-27T17:10:22.674Z,17.30
2023-02-27T17:17:01.548Z,15.32
2023-02-27T17:19:30.391Z,16.83
2023-02-27T17:21:57.865Z,13.30
2023-02-27T17:28:56.700Z,13.77
2023-02-27T17:31:51.728Z,22.58
2023-02-27T17:34:19.211Z,15.48
2023-02-27T17:36:46.782Z,16.83
2023-02-27T17:39:15.254Z,17.83
2023-02-27T17:41:44.189Z,18.25
2023-02-27T17:48:17.444Z,16.73
2023-02-27T17:50:46.845Z,16.10
2023-02-27T17:53:15.810Z,17.23
2023-02-27T17:55:43.152Z,15.23
2023-02-27T17:58:10.526Z,14.30
2023-02-27T18:00:37.928Z,17.20
2023-02-27T18:03:11.189Z,16.38
2023-02-27T18:05:38.601Z,12.60
2023-02-27T18:09:00.878Z,13.25
2023-02-27T18:11:28.357Z,14.32
2023-02-27T18:13:56.699Z,18.20
2023-02-27T18:16:24.383Z,17.83
2023-02-27T18:18:51.994Z,15.40
2023-02-27T18:21:21.818Z,15.48
2023-02-27T18:24:17.369Z,17.45
2023-02-27T18:26:45.561Z,16.00
2023-02-27T18:31:45.116Z,19.23
2023-02-27T18:34:13.147Z,16.23
2023-02-27T18:36:40.707Z,15.55
2023-02-27T18:39:09.143Z,16.73
2023-02-27T18:41:37.381Z,25.40
2023-02-27T18:44:06.095Z,18.20
2023-02-27T18:46:34.532Z,15.38
2023-02-27T18:49:02.108Z,19.80
2023-02-27T18:51:29.644Z,18.95
2023-02-27T18:53:59.978Z,21.23
2023-02-27T18:56:30.729Z,24.23
2023-02-27T18:59:02.281Z,20.55
2023-02-27T19:02:22.717Z,19.02
2023-02-27T19:04:50.195Z,22.52
2023-02-27T19:07:18.415Z,20.38
2023-02-27T19:09:45.857Z,19.80
2023-02-27T19:13:15.006Z,22.75
2023-02-27T19:15:42.388Z,18.38
2023-02-27T19:18:09.770Z,21.08
2023-02-27T19:20:37.530Z,19.15
2023-02-27T19:24:19.601Z,19.98
2023-02-27T19:26:47.423Z,20.60
2023-02-27T19:29:15.461Z,17.45
2023-02-27T19:32:57.762Z,20.23
2023-02-27T19:35:25.829Z,17.23
2023-02-27T19:37:58.299Z,17.05
2023-02-27T19:40:26.560Z,18.60
2023-02-27T19:46:24.726Z,21.23
2023-02-27T19:48:53.692Z,18.10
2023-02-27T19:57:37.837Z,17.05
2023-02-27T20:00:09.704Z,21.67
2023-02-27T20:02:41.102Z,19.15
2023-02-27T20:05:09.438Z,20.75
2023-02-27T20:07:37.114Z,21.05
2023-02-27T20:10:05.932Z,19.45
2023-02-27T20:12:33.454Z,18.67
2023-02-27T20:15:29.230Z,20.55
2023-02-27T20:18:30.194Z,18.00
2023-02-27T20:21:24.794Z,18.55
2023-02-27T20:33:50.700Z,19.95
2023-02-27T20:41:19.908Z,19.50
2023-02-27T20:43:47.993Z,18.60
2023-02-27T20:51:24.834Z,23.25
2023-02-27T20:53:55.111Z,26.98
2023-02-27T20:56:25.276Z,27.42
2023-02-27T20:58:52.965Z,23.92
2023-02-27T21:01:21.433Z,25.70
2023-02-27T21:03:51.239Z,28.00
2023-02-27T21:06:18.979Z,32.13
2023-02-27T21:08:49.840Z,35.97
2023-02-27T21:11:31.151Z,40.50
2023-02-27T21:14:03.315Z,31.42
2023-02-27T21:16:31.200Z,36.47
2023-02-27T21:18:59.019Z,30.58
2023-02-27T21:21:29.984Z,34.15
2023-02-27T21:23:58.578Z,38.35
2023-02-27T21:26:30.491Z,42.65
2023-02-27T21:29:05.923Z,29.83
2023-02-27T21:31:35.464Z,35.00
2023-02-27T21:34:07.106Z,37.40
2023-02-27T21:36:38.512Z,34.78
2023-02-27T21:39:07.532Z,35.63
2023-02-27T21:41:35.672Z,42.35
2023-02-27T21:44:07.079Z,39.20
2023-02-27T21:47:10.390Z,36.97
2023-02-27T21:49:39.398Z,38.45
2023-02-27T21:52:07.269Z,43.72
2023-02-27T21:54:34.923Z,41.05
2023-02-27T21:57:03.500Z,48.72
2023-02-27T21:59:31.312Z,47.95
2023-02-27T22:01:59.017Z,47.88
2023-02-27T22:04:26.498Z,46.33
2023-02-27T22:06:53.966Z,52.33
2023-02-27T22:09:21.484Z,48.42
2023-02-27T22:11:49.573Z,44.45
2023-02-27T22:14:17.369Z,39.92
2023-02-27T22:16:44.818Z,38.65
2023-02-27T22:19:14.599Z,45.05
2023-02-27T22:21:42.180Z,45.63
2023-02-27T22:24:09.886Z,41.78
2023-02-27T22:26:37.897Z,48.60
2023-02-27T22:29:06.416Z,52.72
2023-02-27T22:31:37.281Z,41.72
2023-02-27T22:34:07.886Z,40.00
2023-02-27T22:36:36.221Z,42.45
2023-02-27T22:39:05.476Z,44.40
2023-02-27T22:41:36.028Z,46.33
2023-02-27T22:44:04.150Z,48.92
2023-02-27T22:46:40.706Z,53.47
2023-02-27T22:49:12.945Z,48.20
2023-02-27T22:51:41.456Z,50.95
2023-02-27T22:54:14.226Z,46.28
2023-02-27T22:56:42.453Z,60.05
2023-02-27T22:59:10.313Z,60.28
2023-02-27T23:01:38.323Z,53.75
2023-02-27T23:04:08.423Z,51.05
2023-02-27T23:06:39.109Z,46.08
2023-02-27T23:09:08.827Z,57.17
2023-02-27T23:11:36.434Z,48.72
2023-02-27T23:14:04.463Z,46.72
2023-02-27T23:16:31.947Z,46.15
2023-02-27T23:19:00.145Z,47.67
2023-02-27T23:21:34.702Z,48.83
2023-02-27T23:26:48.578Z,46.53
2023-02-27T23:29:16.083Z,53.45
2023-02-27T23:31:43.628Z,49.63
2023-02-27T23:34:11.306Z,46.85
2023-02-27T23:36:39.573Z,47.17
2023-02-27T23:41:35.004Z,45.00
2023-02-27T23:44:02.407Z,42.88
2023-02-27T23:46:30.866Z,44.05
2023-02-27T23:49:02.092Z,39.47
2023-02-27T23:51:31.029Z,35.83
2023-02-27T23:53:59.273Z,36.95
2023-02-27T23:56:29.507Z,38.20
2023-02-27T23:59:02.460Z,41.53
